Time;durP1;ratioP1;P1;durP2;ratioP2;P2;SDS_P1;SDS_P2;PMS_P1;PMS_P2;Temp;Humidity;BMP_temperature;BMP_pressure;BME280_temperature;BME280_humidity;BME280_pressure;Samples;Min_cycle;Max_cycle;Signal;HPM_P1;HPM_P2
2022/07/25 00:00:32;;;;;;;8.03;7.23;;;21.80;99.90;;;;;;5052543;28;20244;-62
2022/07/25 00:03:01;;;;;;;7.80;7.00;;;21.80;99.90;;;;;;5052678;28;20230;-65
2022/07/25 00:05:30;;;;;;;8.03;7.20;;;21.80;99.90;;;;;;5052695;28;20630;-63
2022/07/25 00:08:05;;;;;;;8.63;7.47;;;21.80;99.90;;;;;;5057522;28;20319;-62
2022/07/25 00:10:34;;;;;;;7.77;6.93;;;21.80;99.90;;;;;;5052261;28;20232;-63
2022/07/25 00:13:04;;;;;;;7.87;7.07;;;21.80;99.90;;;;;;5053038;28;20237;-63
2022/07/25 00:15:32;;;;;;;7.13;6.53;;;21.70;99.90;;;;;;5052790;28;20766;-63
2022/07/25 00:18:00;;;;;;;7.70;7.00;;;21.70;99.90;;;;;;5052358;28;20219;-63
2022/07/25 00:20:29;;;;;;;7.63;7.00;;;21.70;99.90;;;;;;5052444;28;20236;-62
2022/07/25 00:22:57;;;;;;;10.53;7.47;;;21.70;99.90;;;;;;5052938;28;20687;-63
2022/07/25 00:25:26;;;;;;;7.97;7.27;;;21.60;99.90;;;;;;5052484;28;20294;-62
2022/07/25 00:27:54;;;;;;;7.87;7.17;;;21.60;99.90;;;;;;5052437;28;20231;-63
2022/07/25 00:30:24;;;;;;;7.67;6.97;;;21.50;99.90;;;;;;5054137;28;20235;-63
2022/07/25 00:32:52;;;;;;;9.23;8.10;;;21.50;99.90;;;;;;5056358;28;20277;-63
2022/07/25 00:35:21;;;;;;;7.93;7.17;;;21.50;99.90;;;;;;5056499;28;20232;-63
2022/07/25 00:37:50;;;;;;;8.17;7.37;;;21.50;99.90;;;;;;5061324;28;20235;-63
2022/07/25 00:40:18;;;;;;;7.60;7.00;;;21.40;99.90;;;;;;5056221;28;20222;-62
2022/07/25 00:42:47;;;;;;;8.10;7.10;;;21.40;99.90;;;;;;5056477;28;20691;-63
2022/07/25 00:45:16;;;;;;;7.87;7.23;;;21.40;99.90;;;;;;5056635;28;20311;-63
2022/07/25 00:47:46;;;;;;;7.60;6.83;;;21.40;99.90;;;;;;5052408;28;20576;-62
2022/07/25 00:50:15;;;;;;;7.63;7.03;;;21.40;99.90;;;;;;5056316;28;20246;-62
2022/07/25 00:52:43;;;;;;;7.80;6.70;;;21.40;99.90;;;;;;5055885;28;20290;-62
2022/07/25 00:55:12;;;;;;;7.33;6.73;;;21.40;99.90;;;;;;5056071;28;20235;-62
2022/07/25 00:57:41;;;;;;;7.90;7.10;;;21.30;99.90;;;;;;5056066;28;20239;-62
2022/07/25 01:00:13;;;;;;;8.03;7.23;;;21.30;99.90;;;;;;5056561;28;20278;-62
2022/07/25 01:02:41;;;;;;;7.50;6.80;;;21.30;99.90;;;;;;5055804;28;20727;-63
2022/07/25 01:05:12;;;;;;;7.37;6.77;;;21.30;99.90;;;;;;5047684;28;20228;-62
2022/07/25 01:07:40;;;;;;;7.73;7.00;;;21.30;99.90;;;;;;5060180;28;20315;-62
2022/07/25 01:10:10;;;;;;;7.13;6.50;;;21.30;99.90;;;;;;5055713;28;20299;-62
2022/07/25 01:12:49;;;;;;;6.83;6.13;;;21.30;99.90;;;;;;5055768;28;20289;-62
2022/07/25 01:15:18;;;;;;;7.13;6.47;;;21.30;99.90;;;;;;5055923;28;20321;-62
2022/07/25 01:17:47;;;;;;;6.80;6.20;;;21.30;99.90;;;;;;5052614;28;20220;-62
2022/07/25 01:20:18;;;;;;;7.43;6.73;;;21.30;99.90;;;;;;5055929;28;20695;-62
2022/07/25 01:22:47;;;;;;;7.83;7.23;;;21.30;99.90;;;;;;5055567;28;20739;-62
2022/07/25 01:25:16;;;;;;;8.40;7.60;;;21.20;99.90;;;;;;5055784;28;20584;-62
2022/07/25 01:27:45;;;;;;;7.37;6.70;;;21.20;99.90;;;;;;5055296;28;20298;-62
2022/07/25 01:30:20;;;;;;;6.67;6.07;;;21.10;99.90;;;;;;5035109;28;20277;-62
2022/07/25 01:32:49;;;;;;;7.90;7.20;;;21.20;99.90;;;;;;5050501;28;20292;-62
2022/07/25 01:35:19;;;;;;;8.00;7.40;;;21.10;99.90;;;;;;5055362;28;20293;-62
2022/07/25 01:37:47;;;;;;;7.63;6.80;;;21.10;99.90;;;;;;5059951;28;20317;-62
2022/07/25 01:40:16;;;;;;;7.43;6.73;;;21.10;99.90;;;;;;5055255;28;20228;-62
2022/07/25 01:42:44;;;;;;;7.63;6.80;;;21.10;99.90;;;;;;5053888;28;20235;-62
2022/07/25 01:45:13;;;;;;;7.87;7.07;;;21.10;99.90;;;;;;5055508;28;20561;-62
2022/07/25 01:47:42;;;;;;;8.10;7.40;;;21.00;99.90;;;;;;5055176;28;20239;-62
2022/07/25 01:50:10;;;;;;;9.57;6.87;;;21.00;99.90;;;;;;5041375;28;20228;-62
2022/07/25 01:52:40;;;;;;;7.50;6.80;;;20.90;99.90;;;;;;5054565;28;20247;-62
2022/07/25 01:55:09;;;;;;;7.57;6.83;;;21.00;99.90;;;;;;5055325;28;20223;-62
2022/07/25 01:57:39;;;;;;;7.10;6.37;;;20.90;99.90;;;;;;5054920;28;20281;-62
2022/07/25 02:00:17;;;;;;;8.43;7.07;;;20.90;99.90;;;;;;5054467;28;20630;-62
2022/07/25 02:02:45;;;;;;;7.43;6.73;;;20.90;99.90;;;;;;5054414;28;20689;-62
2022/07/25 02:05:14;;;;;;;7.03;6.33;;;20.90;99.90;;;;;;5054777;28;20280;-62
2022/07/25 02:07:44;;;;;;;6.53;5.97;;;20.90;99.90;;;;;;5059001;28;20230;-62
2022/07/25 02:10:13;;;;;;;7.20;6.23;;;20.90;99.90;;;;;;5047287;28;20308;-62
2022/07/25 02:12:41;;;;;;;7.00;6.33;;;20.90;99.90;;;;;;5054802;28;20726;-62
2022/07/25 02:15:10;;;;;;;7.30;6.63;;;20.80;99.90;;;;;;5054843;28;20277;-62
2022/07/25 02:17:38;;;;;;;6.23;5.73;;;20.90;99.90;;;;;;5054120;28;20254;-62
2022/07/25 02:20:08;;;;;;;6.23;5.63;;;20.80;99.90;;;;;;5054750;28;20238;-62
2022/07/25 02:22:37;;;;;;;6.83;6.23;;;20.70;99.90;;;;;;5054328;28;20231;-62
2022/07/25 02:25:09;;;;;;;6.37;5.77;;;20.70;99.90;;;;;;5054755;28;20241;-62
2022/07/25 02:27:37;;;;;;;6.90;6.13;;;20.70;99.90;;;;;;5054134;28;20237;-62
2022/07/25 02:30:07;;;;;;;5.77;5.27;;;20.70;99.90;;;;;;5054452;28;20227;-62
2022/07/25 02:32:35;;;;;;;6.10;5.50;;;20.60;99.90;;;;;;5053660;28;20259;-62
2022/07/25 02:35:04;;;;;;;6.90;5.50;;;20.60;99.90;;;;;;5054247;28;20686;-62
2022/07/25 02:37:41;;;;;;;6.70;5.67;;;20.60;99.90;;;;;;5058199;28;20237;-62
2022/07/25 02:40:11;;;;;;;7.03;5.80;;;20.50;99.90;;;;;;5046280;28;20227;-62
2022/07/25 02:42:40;;;;;;;5.90;5.30;;;20.60;99.90;;;;;;5056631;28;20235;-62
2022/07/25 02:45:09;;;;;;;7.03;5.60;;;20.60;99.90;;;;;;5054102;28;20219;-62
2022/07/25 02:48:10;;;;;;;5.97;5.47;;;20.50;99.90;;;;;;5053788;28;20364;-62
2022/07/25 02:50:39;;;;;;;6.90;5.47;;;20.50;99.90;;;;;;5054351;28;21087;-62
2022/07/25 02:53:07;;;;;;;6.10;5.60;;;20.40;99.90;;;;;;5056739;28;20239;-62
2022/07/25 02:55:37;;;;;;;8.17;6.00;;;20.40;99.90;;;;;;5053858;28;20231;-62
2022/07/25 02:58:05;;;;;;;6.20;5.60;;;20.40;99.90;;;;;;5054049;28;20227;-62
2022/07/25 03:00:33;;;;;;;5.70;5.20;;;20.40;99.90;;;;;;5057704;28;20404;-62
2022/07/25 03:03:02;;;;;;;8.30;5.10;;;20.40;99.90;;;;;;5053943;28;20237;-62
2022/07/25 03:05:31;;;;;;;9.40;5.03;;;20.30;99.90;;;;;;5053581;28;20968;-62
2022/07/25 03:07:59;;;;;;;6.77;5.83;;;20.30;99.90;;;;;;5058211;28;20262;-62
2022/07/25 03:10:27;;;;;;;5.63;5.13;;;20.30;99.90;;;;;;5053552;28;20315;-62
2022/07/25 03:12:57;;;;;;;5.73;5.20;;;20.30;99.90;;;;;;5053682;28;20326;-62
2022/07/25 03:15:25;;;;;;;5.90;5.30;;;20.30;99.90;;;;;;5053586;28;20699;-62
2022/07/25 03:17:53;;;;;;;5.37;4.87;;;20.30;99.90;;;;;;5053662;28;20729;-62
2022/07/25 03:20:21;;;;;;;5.53;4.90;;;20.30;99.90;;;;;;5053840;28;20707;-62
2022/07/25 03:22:50;;;;;;;6.93;5.40;;;20.30;99.90;;;;;;5053957;28;20220;-62
2022/07/25 03:25:18;;;;;;;5.10;4.60;;;20.30;99.90;;;;;;5053618;28;20239;-62
2022/07/25 03:27:49;;;;;;;6.70;5.33;;;20.30;99.90;;;;;;5053360;28;20235;-62
2022/07/25 03:30:19;;;;;;;5.57;5.07;;;20.20;99.90;;;;;;5052923;28;20603;-62
2022/07/25 03:32:47;;;;;;;6.10;5.50;;;20.20;99.90;;;;;;5052762;28;20267;-62
2022/07/25 03:35:15;;;;;;;6.60;5.43;;;20.30;99.90;;;;;;5053480;28;20759;-62
2022/07/25 03:37:44;;;;;;;6.90;4.90;;;20.30;99.90;;;;;;5053000;28;20243;-61
2022/07/25 03:40:13;;;;;;;6.13;5.53;;;20.30;99.90;;;;;;5045549;28;20250;-62
2022/07/25 03:42:43;;;;;;;12.43;5.00;;;20.30;99.90;;;;;;5052687;28;20239;-62
2022/07/25 03:45:11;;;;;;;5.43;4.67;;;20.30;99.90;;;;;;5045346;28;20254;-62
2022/07/25 03:47:41;;;;;;;11.23;5.20;;;20.30;99.90;;;;;;5052707;28;20237;-62
2022/07/25 03:50:10;;;;;;;5.83;5.10;;;20.30;99.90;;;;;;5052968;28;20317;-62
2022/07/25 03:52:38;;;;;;;5.47;4.73;;;20.30;99.90;;;;;;5052476;28;20251;-62
2022/07/25 03:55:08;;;;;;;5.90;4.90;;;20.40;99.90;;;;;;5053285;28;20601;-62
2022/07/25 03:57:36;;;;;;;5.07;4.47;;;20.40;99.90;;;;;;5052561;28;20626;-62
2022/07/25 04:00:06;;;;;;;4.93;4.43;;;20.40;99.90;;;;;;5053078;28;20251;-62
2022/07/25 04:02:36;;;;;;;5.60;4.60;;;20.50;99.90;;;;;;5052422;28;20926;-62
2022/07/25 04:05:07;;;;;;;6.10;4.77;;;20.50;99.90;;;;;;5052647;28;20265;-62
2022/07/25 04:07:35;;;;;;;5.57;4.60;;;20.60;99.90;;;;;;5052946;28;20236;-62
2022/07/25 04:10:05;;;;;;;6.67;4.70;;;20.60;99.90;;;;;;5052796;28;20224;-62
2022/07/25 04:12:33;;;;;;;4.80;4.10;;;20.70;99.90;;;;;;5052553;28;20240;-62
2022/07/25 04:15:01;;;;;;;5.53;4.77;;;20.70;99.90;;;;;;5053032;28;20312;-62
2022/07/25 04:17:30;;;;;;;4.80;4.40;;;20.80;99.90;;;;;;5052396;28;20661;-62
2022/07/25 04:19:58;;;;;;;5.20;4.40;;;20.80;99.90;;;;;;5052794;28;20560;-62
2022/07/25 04:22:28;;;;;;;4.93;4.40;;;20.80;99.90;;;;;;5052409;28;20244;-62
2022/07/25 04:24:56;;;;;;;5.30;4.80;;;20.80;99.90;;;;;;5052975;28;20228;-62
2022/07/25 04:27:24;;;;;;;5.50;4.40;;;20.80;99.90;;;;;;5052806;28;20228;-62
2022/07/25 04:29:52;;;;;;;4.77;4.37;;;20.90;99.90;;;;;;5052482;28;20313;-62
2022/07/25 04:32:20;;;;;;;4.73;4.30;;;20.90;99.90;;;;;;5054741;28;20658;-62
2022/07/25 04:34:51;;;;;;;5.30;4.60;;;21.00;99.90;;;;;;5051261;28;20224;-62
2022/07/25 04:37:19;;;;;;;5.30;4.57;;;21.00;99.90;;;;;;5045792;28;20311;-62
2022/07/25 04:39:48;;;;;;;6.13;4.20;;;21.00;99.90;;;;;;5052145;28;20255;-62
2022/07/25 04:42:16;;;;;;;8.40;4.63;;;21.00;99.90;;;;;;5052015;28;20224;-62
2022/07/25 04:44:45;;;;;;;5.40;4.37;;;21.00;99.90;;;;;;5050561;28;20262;-62
2022/07/25 04:47:13;;;;;;;4.17;3.87;;;21.10;99.90;;;;;;5052298;28;20578;-62
2022/07/25 04:49:41;;;;;;;6.50;4.23;;;21.10;99.90;;;;;;5051404;28;20258;-62
2022/07/25 04:52:09;;;;;;;5.60;4.23;;;21.10;99.90;;;;;;5052034;28;20236;-63
2022/07/25 04:54:37;;;;;;;4.87;4.37;;;21.10;99.90;;;;;;5052170;28;20232;-62
2022/07/25 04:57:06;;;;;;;5.93;4.23;;;21.20;99.90;;;;;;5052425;28;20319;-62
2022/07/25 04:59:35;;;;;;;5.10;4.60;;;21.30;99.90;;;;;;5050926;28;20223;-62
2022/07/25 05:02:03;;;;;;;4.30;3.90;;;21.40;99.90;;;;;;5051825;28;20224;-63
2022/07/25 05:04:31;;;;;;;6.07;4.17;;;21.50;99.90;;;;;;5052141;28;20282;-63
2022/07/25 05:07:02;;;;;;;5.33;4.27;;;21.60;99.90;;;;;;5052150;28;20243;-63
2022/07/25 05:09:30;;;;;;;5.00;4.50;;;21.70;99.90;;;;;;5048190;28;20258;-63
2022/07/25 05:11:58;;;;;;;6.03;4.80;;;21.90;99.90;;;;;;5052459;28;20310;-63
2022/07/25 05:14:27;;;;;;;4.73;4.33;;;22.10;99.90;;;;;;5052010;28;20227;-62
2022/07/25 05:16:55;;;;;;;5.40;4.27;;;22.20;99.90;;;;;;5054950;28;20228;-63
2022/07/25 05:19:24;;;;;;;4.73;4.30;;;22.30;99.90;;;;;;5055729;28;20729;-63
2022/07/25 05:21:52;;;;;;;5.33;4.13;;;22.40;99.90;;;;;;5055945;28;20325;-63
2022/07/25 05:24:21;;;;;;;6.10;4.30;;;22.50;99.90;;;;;;5055700;28;20319;-63
2022/07/25 05:26:50;;;;;;;4.90;4.40;;;22.50;99.90;;;;;;5055520;28;20234;-63
2022/07/25 05:29:18;;;;;;;7.03;4.30;;;22.60;99.90;;;;;;5055949;28;20258;-63
2022/07/25 05:31:47;;;;;;;5.33;4.27;;;22.70;99.90;;;;;;5055106;28;20324;-63
2022/07/25 05:34:15;;;;;;;4.93;4.30;;;22.70;99.90;;;;;;5055480;28;20286;-64
2022/07/25 05:36:44;;;;;;;7.00;4.00;;;22.90;99.90;;;;;;5054686;28;20754;-60
2022/07/25 05:39:14;;;;;;;5.10;4.47;;;23.10;99.90;;;;;;5055536;28;20303;-64
2022/07/25 05:41:43;;;;;;;5.60;4.27;;;23.30;99.90;;;;;;5057079;28;20220;-64
2022/07/25 05:44:13;;;;;;;6.20;4.20;;;23.50;99.90;;;;;;5057753;28;20268;-64
2022/07/25 05:46:41;;;;;;;6.53;4.10;;;23.50;99.90;;;;;;5059817;28;20235;-64
2022/07/25 05:49:11;;;;;;;5.13;4.27;;;23.50;99.90;;;;;;5047839;28;20229;-64
2022/07/25 05:51:39;;;;;;;4.40;4.00;;;23.50;99.90;;;;;;5054615;28;20703;-64
2022/07/25 05:54:07;;;;;;;6.80;4.40;;;23.50;99.90;;;;;;5051449;28;20319;-64
2022/07/25 05:56:36;;;;;;;5.07;4.00;;;23.60;99.90;;;;;;5056989;28;20319;-65
2022/07/25 05:59:05;;;;;;;4.40;4.10;;;23.80;99.90;;;;;;5055373;28;20235;-65
2022/07/25 06:01:33;;;;;;;4.40;4.00;;;24.20;99.90;;;;;;5054082;28;20236;-65
2022/07/25 06:04:02;;;;;;;5.50;4.17;;;24.50;99.90;;;;;;5052957;28;20741;-65
2022/07/25 06:06:32;;;;;;;5.50;4.17;;;24.60;99.90;;;;;;5036078;28;20239;-64
2022/07/25 06:09:01;;;;;;;4.40;4.00;;;24.50;99.90;;;;;;5056313;28;20227;-65
2022/07/25 06:11:35;;;;;;;5.00;4.50;;;24.50;99.90;;;;;;5054855;28;20258;-64
2022/07/25 06:14:18;;;;;;;4.87;4.37;;;24.40;99.90;;;;;;5048924;28;20236;-65
2022/07/25 06:16:47;;;;;;;12.37;4.63;;;24.40;99.90;;;;;;5057076;28;20236;-65
2022/07/25 06:19:15;;;;;;;4.37;3.97;;;24.60;99.90;;;;;;5055403;28;20222;-65
2022/07/25 06:21:44;;;;;;;4.57;3.90;;;24.60;99.90;;;;;;5054377;28;20230;-65
2022/07/25 06:24:12;;;;;;;4.50;4.10;;;24.60;99.90;;;;;;5054609;28;20256;-65
2022/07/25 06:26:41;;;;;;;4.70;4.20;;;24.60;99.90;;;;;;5054777;28;20244;-65
2022/07/25 06:29:09;;;;;;;4.87;4.30;;;24.50;99.90;;;;;;5053929;28;20219;-65
2022/07/25 06:31:37;;;;;;;6.33;4.40;;;24.40;99.90;;;;;;5053310;28;20224;-65
2022/07/25 06:34:06;;;;;;;4.93;4.43;;;24.40;99.90;;;;;;5046220;28;20689;-64
2022/07/25 06:36:34;;;;;;;4.43;4.00;;;24.60;99.90;;;;;;5049348;28;20229;-65
2022/07/25 06:39:04;;;;;;;4.57;4.17;;;24.80;99.90;;;;;;5055015;28;20231;-65
2022/07/25 06:41:32;;;;;;;4.97;4.43;;;24.90;99.90;;;;;;5053795;28;20223;-65
2022/07/25 06:44:00;;;;;;;5.00;4.60;;;24.90;99.90;;;;;;5054050;28;20226;-66
2022/07/25 06:46:30;;;;;;;5.00;4.20;;;25.10;99.90;;;;;;5053995;28;20674;-66
2022/07/25 06:48:58;;;;;;;5.10;4.20;;;25.40;99.90;;;;;;5053846;28;20607;-66
2022/07/25 06:51:27;;;;;;;5.50;4.37;;;25.60;99.90;;;;;;5053894;28;20230;-65
2022/07/25 06:53:55;;;;;;;4.07;3.77;;;25.90;99.90;;;;;;5054063;28;20240;-66
2022/07/25 06:56:26;;;;;;;4.27;3.87;;;25.90;99.90;;;;;;5053513;28;20264;-66
2022/07/25 06:58:54;;;;;;;6.20;4.20;;;25.70;99.90;;;;;;5054033;28;20306;-67
2022/07/25 07:01:23;;;;;;;5.03;4.50;;;25.50;99.90;;;;;;5053456;28;20718;-67
2022/07/25 07:03:51;;;;;;;5.07;4.60;;;25.50;99.90;;;;;;5053606;28;20662;-66
2022/07/25 07:06:19;;;;;;;5.40;4.40;;;25.60;99.90;;;;;;5052731;28;20305;-67
2022/07/25 07:08:47;;;;;;;5.30;4.27;;;25.90;99.90;;;;;;5045800;28;20242;-66
2022/07/25 07:11:16;;;;;;;6.60;4.50;;;26.20;99.90;;;;;;5053310;28;20218;-66
2022/07/25 07:13:45;;;;;;;4.33;3.93;;;26.70;99.90;;;;;;5052985;28;20230;-65
2022/07/25 07:16:13;;;;;;;5.33;4.80;;;26.90;99.90;;;;;;5053561;28;20231;-66
2022/07/25 07:18:41;;;;;;;6.33;4.50;;;26.80;99.90;;;;;;5051657;28;20236;-66
2022/07/25 07:21:16;;;;;;;4.87;4.47;;;27.10;99.90;;;;;;5053131;28;20260;-66
2022/07/25 07:23:49;;;;;;;8.33;4.47;;;27.30;99.90;;;;;;5053086;28;20682;-67
2022/07/25 07:26:21;;;;;;;6.50;4.77;;;27.30;99.90;;;;;;5050543;28;20261;-66
2022/07/25 07:28:53;;;;;;;5.37;4.87;;;27.50;99.90;;;;;;5052164;28;20307;-67
2022/07/25 07:31:21;;;;;;;5.63;4.77;;;27.80;99.90;;;;;;5051845;28;20242;-67
2022/07/25 07:33:49;;;;;;;7.30;5.10;;;28.10;99.90;;;;;;5052581;28;20243;-67
2022/07/25 07:36:17;;;;;;;6.33;4.50;;;28.10;99.90;;;;;;5050461;28;20259;-66
2022/07/25 07:38:47;;;;;;;6.07;5.10;;;28.10;99.90;;;;;;5051083;28;20292;-67
2022/07/25 07:41:15;;;;;;;5.27;4.60;;;28.20;99.90;;;;;;5048335;28;20231;-67
2022/07/25 07:43:43;;;;;;;5.13;4.73;;;28.40;99.90;;;;;;5042732;28;20234;-67
2022/07/25 07:46:13;;;;;;;6.70;5.17;;;28.50;99.90;;;;;;5038491;28;20324;-65
2022/07/25 07:48:41;;;;;;;5.93;4.87;;;28.50;99.90;;;;;;5038790;28;20232;-62
2022/07/25 07:51:09;;;;;;;5.50;5.00;;;28.90;99.90;;;;;;5038775;28;20235;-67
2022/07/25 07:56:23;;;;;;;6.43;4.77;;;29.40;99.90;;;;;;5038726;28;20774;-63
2022/07/25 07:58:51;;;;;;;5.53;4.80;;;29.50;99.90;;;;;;5039566;28;20305;-67
2022/07/25 08:01:20;;;;;;;5.30;4.80;;;29.20;99.90;;;;;;5040209;28;20228;-67
2022/07/25 08:03:48;;;;;;;5.43;5.00;;;29.20;99.90;;;;;;5039354;28;20223;-67
2022/07/25 08:06:17;;;;;;;6.80;5.27;;;29.40;99.90;;;;;;5042453;28;20329;-67
2022/07/25 08:08:45;;;;;;;7.03;5.23;;;29.50;99.90;;;;;;5043339;28;20314;-66
2022/07/25 08:11:15;;;;;;;5.83;5.30;;;29.60;99.90;;;;;;5045329;28;20312;-62
2022/07/25 08:13:44;;;;;;;5.67;5.17;;;29.50;99.90;;;;;;5040437;28;20231;-67
2022/07/25 08:16:13;;;;;;;5.63;5.10;;;29.40;99.90;;;;;;5042509;28;20263;-64
2022/07/25 08:18:42;;;;;;;5.97;5.23;;;29.30;99.90;;;;;;5043339;28;20234;-64
2022/07/25 08:21:11;;;;;;;6.20;5.23;;;29.40;99.90;;;;;;5043196;28;20576;-66
2022/07/25 08:23:39;;;;;;;6.23;5.13;;;29.10;99.90;;;;;;5041726;28;20242;-66
2022/07/25 08:26:08;;;;;;;5.60;5.10;;;28.80;99.90;;;;;;5043336;28;20224;-67
2022/07/25 08:28:36;;;;;;;7.37;5.40;;;28.60;99.90;;;;;;5042450;28;20235;-67
2022/07/25 08:31:04;;;;;;;5.73;5.23;;;28.50;99.90;;;;;;5043367;28;20328;-65
2022/07/25 08:33:33;;;;;;;6.83;5.30;;;28.50;99.90;;;;;;5040531;28;20306;-67
2022/07/25 08:36:02;;;;;;;5.77;4.80;;;28.40;99.90;;;;;;5042873;28;20262;-66
2022/07/25 08:38:30;;;;;;;5.80;5.30;;;28.50;99.90;;;;;;5042874;28;20369;-62
2022/07/25 08:41:01;;;;;;;7.90;5.30;;;28.60;99.90;;;;;;5042915;28;21200;-67
2022/07/25 08:43:31;;;;;;;5.83;5.00;;;28.70;99.90;;;;;;5041750;28;20587;-64
2022/07/25 08:46:01;;;;;;;7.47;5.17;;;29.00;99.90;;;;;;5042462;28;20220;-66
2022/07/25 08:48:30;;;;;;;6.03;4.80;;;29.40;99.90;;;;;;5043350;28;20227;-65
2022/07/25 08:50:59;;;;;;;5.53;5.07;;;29.90;99.90;;;;;;5043330;28;20319;-66
2022/07/25 08:53:29;;;;;;;6.23;5.00;;;30.90;99.90;;;;;;5042921;28;20244;-66
2022/07/25 08:56:00;;;;;;;6.13;5.53;;;31.20;99.90;;;;;;5044039;28;20865;-67
2022/07/25 08:58:36;;;;;;;5.93;5.17;;;31.30;99.90;;;;;;5044487;28;20638;-64
2022/07/25 09:01:05;;;;;;;6.00;4.93;;;31.50;99.90;;;;;;5043623;28;20689;-67
2022/07/25 09:03:35;;;;;;;7.33;5.53;;;31.50;99.90;;;;;;5040792;28;20285;-66
2022/07/25 09:06:14;;;;;;;6.37;5.70;;;31.60;99.90;;;;;;5047787;28;20227;-64
2022/07/25 09:08:53;;;;;;;5.63;5.00;;;31.50;99.90;;;;;;5047506;28;20352;-63
2022/07/25 09:11:30;;;;;;;6.00;5.37;;;31.20;99.90;;;;;;5045961;28;20232;-67
2022/07/25 09:13:59;;;;;;;6.27;5.67;;;30.90;99.90;;;;;;5045311;28;20278;-67
2022/07/25 09:16:31;;;;;;;5.90;5.40;;;31.00;99.90;;;;;;5045307;28;20224;-62
2022/07/25 09:19:09;;;;;;;7.43;5.37;;;31.00;99.90;;;;;;5046564;28;20324;-66
2022/07/25 09:21:38;;;;;;;6.73;5.30;;;31.20;99.90;;;;;;5046548;28;20248;-66
2022/07/25 09:24:17;;;;;;;7.80;5.47;;;31.30;99.90;;;;;;5040077;28;20223;-61
2022/07/25 09:26:47;;;;;;;7.80;5.40;;;31.30;99.90;;;;;;5043835;28;20229;-66
2022/07/25 09:29:21;;;;;;;6.70;5.60;;;31.50;99.90;;;;;;5043363;28;20541;-67
2022/07/25 09:31:50;;;;;;;5.93;5.27;;;31.40;99.90;;;;;;5054119;28;20231;-66
2022/07/25 09:34:33;;;;;;;6.83;5.67;;;31.30;99.90;;;;;;5055742;28;20231;-66
2022/07/25 09:37:03;;;;;;;6.27;5.67;;;31.30;99.90;;;;;;5055392;28;20230;-67
2022/07/25 09:39:42;;;;;;;6.00;5.50;;;31.40;99.90;;;;;;5060076;28;20226;-66
2022/07/25 09:42:20;;;;;;;6.03;5.30;;;31.50;99.90;;;;;;5051840;28;20273;-67
2022/07/25 09:45:11;;;;;;;6.93;5.53;;;31.70;99.90;;;;;;5055386;28;20278;-67
2022/07/25 09:47:50;;;;;;;6.00;5.40;;;31.90;99.90;;;;;;5054353;28;20582;-67
2022/07/25 09:50:19;;;;;;;6.97;5.40;;;31.90;99.90;;;;;;5035662;28;20232;-67
2022/07/25 09:52:47;;;;;;;6.60;5.50;;;31.90;99.90;;;;;;5035008;28;20349;-66
2022/07/25 09:55:18;;;;;;;6.40;5.57;;;31.90;99.90;;;;;;5039529;28;20226;-65
2022/07/25 09:57:47;;;;;;;6.73;5.60;;;31.70;99.90;;;;;;5054819;28;20224;-66
2022/07/25 10:00:22;;;;;;;6.03;5.47;;;31.50;99.90;;;;;;5054583;28;20229;-67
2022/07/25 10:02:58;;;;;;;6.47;5.87;;;31.40;99.90;;;;;;5054270;28;20230;-66
2022/07/25 10:05:41;;;;;;;5.83;5.23;;;31.30;99.90;;;;;;5054978;28;20659;-66
2022/07/25 10:08:11;;;;;;;6.23;5.50;;;31.30;99.90;;;;;;5059542;28;20575;-67
2022/07/25 10:10:42;;;;;;;5.83;5.33;;;31.60;99.90;;;;;;5055063;28;20238;-67
2022/07/25 10:13:13;;;;;;;6.40;5.80;;;31.70;99.90;;;;;;5054702;28;20667;-67
2022/07/25 10:15:47;;;;;;;6.17;5.30;;;31.70;99.90;;;;;;5041221;28;20676;-66
2022/07/25 10:18:18;;;;;;;6.10;5.57;;;31.80;99.90;;;;;;5047559;28;20245;-66
2022/07/25 10:20:48;;;;;;;9.33;5.80;;;31.90;99.90;;;;;;5054892;28;20725;-67
2022/07/25 10:23:24;;;;;;;6.13;5.63;;;31.80;99.90;;;;;;5054602;28;20260;-66
2022/07/25 10:26:08;;;;;;;6.23;5.53;;;32.30;99.90;;;;;;5054567;28;20298;-67
2022/07/25 10:28:42;;;;;;;6.47;5.80;;;32.50;99.90;;;;;;5054263;28;20694;-67
2022/07/25 10:31:21;;;;;;;7.27;5.63;;;32.80;99.90;;;;;;5034040;28;20319;-66
2022/07/25 10:33:53;;;;;;;5.53;5.03;;;33.40;99.90;;;;;;5040186;28;20225;-67
2022/07/25 10:36:22;;;;;;;6.37;4.93;;;34.00;98.90;;;;;;5054068;28;20313;-67
2022/07/25 10:38:57;;;;;;;5.73;5.23;;;34.60;97.90;;;;;;5058414;28;20600;-66
2022/07/25 10:41:28;;;;;;;6.00;5.43;;;35.20;97.20;;;;;;5054308;28;20624;-66
2022/07/25 10:44:01;;;;;;;6.03;5.23;;;35.20;96.30;;;;;;5053474;28;20314;-66
2022/07/25 10:46:31;;;;;;;6.43;5.17;;;35.00;95.80;;;;;;5053190;28;20211;-66
2022/07/25 10:49:04;;;;;;;5.77;5.17;;;34.70;96.80;;;;;;5054184;28;20259;-66
2022/07/25 10:51:35;;;;;;;7.17;5.57;;;34.90;96.60;;;;;;5052454;28;20250;-66
2022/07/25 10:54:15;;;;;;;5.70;5.20;;;35.40;96.40;;;;;;5053823;28;20281;-66
2022/07/25 10:56:56;;;;;;;6.00;5.40;;;35.60;94.00;;;;;;5042390;28;20305;-62
2022/07/25 10:59:30;;;;;;;6.07;5.00;;;35.80;94.30;;;;;;5041639;28;20247;-64
2022/07/25 11:01:59;;;;;;;5.50;5.00;;;36.50;94.10;;;;;;5043491;28;20322;-65
2022/07/25 11:04:28;;;;;;;7.13;4.90;;;36.50;93.30;;;;;;5042400;28;20228;-63
2022/07/25 11:06:56;;;;;;;5.00;4.60;;;36.30;92.20;;;;;;5040702;28;20232;-64
2022/07/25 11:09:26;;;;;;;5.57;5.07;;;36.50;92.50;;;;;;5042453;28;20232;-65
2022/07/25 11:11:58;;;;;;;6.77;5.23;;;36.30;90.90;;;;;;5042099;28;20231;-64
2022/07/25 11:14:31;;;;;;;6.00;4.80;;;36.00;90.60;;;;;;5041264;28;20229;-61
2022/07/25 11:17:11;;;;;;;5.70;5.10;;;36.10;91.20;;;;;;5038219;28;20236;-65
2022/07/25 11:19:40;;;;;;;6.20;5.10;;;36.30;90.30;;;;;;5040907;28;20269;-63
2022/07/25 11:22:08;;;;;;;6.10;4.90;;;35.80;90.20;;;;;;5041258;28;20774;-65
2022/07/25 11:24:39;;;;;;;5.57;4.97;;;35.10;90.50;;;;;;5042108;28;20227;-64
2022/07/25 11:27:09;;;;;;;5.33;4.80;;;35.10;91.00;;;;;;5041797;28;20216;-65
2022/07/25 11:29:40;;;;;;;4.97;4.50;;;35.40;91.10;;;;;;5043171;28;20619;-65
2022/07/25 11:32:10;;;;;;;5.50;4.97;;;35.90;90.80;;;;;;5042737;28;20778;-65
2022/07/25 11:34:42;;;;;;;5.07;4.60;;;36.50;90.30;;;;;;5043946;28;20235;-65
2022/07/25 11:37:12;;;;;;;6.23;4.57;;;36.90;89.00;;;;;;5041122;28;20235;-62
2022/07/25 11:39:42;;;;;;;5.03;4.50;;;37.10;89.50;;;;;;5043210;28;20272;-64
2022/07/25 11:42:15;;;;;;;6.27;5.27;;;37.00;89.00;;;;;;5043812;28;20260;-64
2022/07/25 11:44:45;;;;;;;5.17;4.60;;;36.30;87.60;;;;;;5041974;28;20245;-64
2022/07/25 11:47:27;;;;;;;5.07;4.60;;;35.90;88.90;;;;;;5038632;28;20245;-64
2022/07/25 11:49:56;;;;;;;6.10;4.70;;;35.90;90.00;;;;;;5041948;28;20240;-64
2022/07/25 11:52:26;;;;;;;5.57;5.07;;;35.80;88.50;;;;;;5041122;28;20280;-62
2022/07/25 11:54:56;;;;;;;5.43;4.53;;;35.30;88.30;;;;;;5039222;28;21270;-63
2022/07/25 11:57:27;;;;;;;9.40;5.47;;;34.90;90.20;;;;;;5038790;28;20321;-64
2022/07/25 11:59:56;;;;;;;7.43;5.17;;;35.00;91.10;;;;;;5040259;28;20235;-61
2022/07/25 12:02:26;;;;;;;7.37;5.10;;;34.60;89.10;;;;;;5041762;28;20239;-63
2022/07/25 12:04:56;;;;;;;5.10;4.60;;;34.40;91.10;;;;;;5039668;28;20745;-64
2022/07/25 12:07:36;;;;;;;6.03;4.80;;;34.20;91.40;;;;;;5038623;28;20233;-63
2022/07/25 12:10:05;;;;;;;6.87;4.67;;;34.60;91.50;;;;;;5041737;28;20314;-61
2022/07/25 12:12:43;;;;;;;5.30;4.80;;;34.90;91.30;;;;;;5039784;28;20235;-61
2022/07/25 12:15:13;;;;;;;7.47;4.97;;;35.00;90.80;;;;;;5041658;28;20228;-62
2022/07/25 12:17:42;;;;;;;5.30;4.83;;;35.00;90.40;;;;;;5040101;28;20240;-62
2022/07/25 12:20:15;;;;;;;6.13;4.87;;;34.60;90.40;;;;;;5040434;28;21417;-62
2022/07/25 12:22:44;;;;;;;5.50;5.00;;;34.10;90.40;;;;;;5040814;28;20231;-62
2022/07/25 12:25:12;;;;;;;5.90;4.90;;;33.70;92.10;;;;;;5040182;28;20254;-63
2022/07/25 12:27:42;;;;;;;5.80;5.30;;;33.40;92.40;;;;;;5044924;28;20219;-62
2022/07/25 12:30:12;;;;;;;6.40;5.60;;;33.20;92.40;;;;;;5044687;28;20323;-62
2022/07/25 12:32:41;;;;;;;6.00;5.10;;;32.90;92.70;;;;;;5044303;28;20254;-61
2022/07/25 12:35:11;;;;;;;6.47;5.40;;;32.80;92.90;;;;;;5044615;28;20370;-62
2022/07/25 12:37:40;;;;;;;5.97;5.47;;;32.70;93.20;;;;;;5042829;28;20362;-63
2022/07/25 12:40:09;;;;;;;6.13;5.53;;;32.40;93.40;;;;;;5043123;28;20915;-64
2022/07/25 12:42:38;;;;;;;10.00;6.00;;;32.30;93.80;;;;;;5042645;28;20259;-64
2022/07/25 12:45:08;;;;;;;7.57;5.30;;;32.10;93.80;;;;;;5044105;28;20232;-64
2022/07/25 12:47:37;;;;;;;6.80;5.73;;;32.10;94.30;;;;;;5042687;28;20254;-63
2022/07/25 12:50:06;;;;;;;7.90;6.00;;;32.10;94.30;;;;;;5043862;28;20239;-61
2022/07/25 12:52:34;;;;;;;6.63;6.00;;;32.10;94.60;;;;;;5045684;28;20726;-64
2022/07/25 12:55:02;;;;;;;7.20;5.60;;;32.20;94.80;;;;;;5042801;28;20235;-60
2022/07/25 12:57:30;;;;;;;6.83;5.17;;;32.30;95.00;;;;;;5043341;28;20239;-63
2022/07/25 12:59:59;;;;;;;5.70;5.10;;;32.20;95.00;;;;;;5045922;28;20344;-64
2022/07/25 13:02:28;;;;;;;5.90;5.40;;;32.30;95.10;;;;;;5045136;28;20242;-64